Time;durP1;ratioP1;P1;durP2;ratioP2;P2;SDS_P1;SDS_P2;PMS_P1;PMS_P2;Temp;Humidity;BMP_temperature;BMP_pressure;BME280_temperature;BME280_humidity;BME280_pressure;Samples;Min_cycle;Max_cycle;Signal;HPM_P1;HPM_P2
2022/06/06 00:00:40;;;;;;;24.10;21.50;;;19.90;76.80;21.90;100635.00;;;;4986793;28;20178;-48
2022/06/06 00:03:06;;;;;;;21.93;19.73;;;19.80;77.00;21.90;100621.00;;;;4986805;28;20268;-47
2022/06/06 00:05:32;;;;;;;22.73;20.43;;;19.70;77.40;21.80;100630.00;;;;4987291;28;20247;-49
2022/06/06 00:07:58;;;;;;;22.17;19.90;;;19.70;77.20;21.80;100622.00;;;;4986581;28;20176;-48
2022/06/06 00:10:25;;;;;;;19.30;17.37;;;19.70;78.00;21.80;100614.00;;;;4986727;28;20815;-47
2022/06/06 00:12:50;;;;;;;19.97;17.97;;;19.80;77.10;21.80;100617.00;;;;4986539;28;20235;-47
2022/06/06 00:15:16;;;;;;;19.13;17.17;;;19.90;76.30;21.80;100622.00;;;;4986660;28;20237;-47
2022/06/06 00:17:42;;;;;;;19.20;17.17;;;20.00;75.40;21.80;100622.00;;;;4986641;28;20230;-47
2022/06/06 00:20:08;;;;;;;17.37;15.70;;;20.20;75.10;21.90;100630.00;;;;4986383;28;20207;-47
2022/06/06 00:22:34;;;;;;;19.53;17.70;;;20.40;74.30;22.00;100621.00;;;;4986266;28;20301;-47
2022/06/06 00:25:00;;;;;;;19.10;17.10;;;20.40;73.30;22.00;100614.00;;;;4986303;28;20335;-47
2022/06/06 00:27:25;;;;;;;20.47;18.43;;;20.20;73.60;22.00;100622.00;;;;4988832;28;20226;-47
2022/06/06 00:29:53;;;;;;;16.60;14.97;;;20.20;73.50;22.00;100624.00;;;;4990732;28;20230;-47
2022/06/06 00:35:05;;;;;;;20.87;18.87;;;20.20;73.50;22.00;100619.00;;;;4990572;28;20173;-47
2022/06/06 00:37:32;;;;;;;18.00;16.17;;;20.00;74.00;22.00;100620.00;;;;4990505;28;20184;-48
2022/06/06 00:40:00;;;;;;;20.70;18.47;;;20.00;74.70;22.00;100609.00;;;;4990502;28;20708;-46
2022/06/06 00:42:31;;;;;;;19.10;17.10;;;20.10;74.00;21.80;100568.00;;;;4990347;28;20188;-48
2022/06/06 00:45:19;;;;;;;18.40;16.53;;;20.20;73.70;22.00;100620.00;;;;4989308;28;20287;-47
2022/06/06 00:48:06;;;;;;;19.53;17.63;;;20.30;74.30;22.00;100607.00;;;;4990136;28;20863;-47
2022/06/06 00:50:51;;;;;;;18.93;16.90;;;20.20;74.00;22.00;100603.00;;;;4989468;28;20225;-47
2022/06/06 00:53:28;;;;;;;19.03;17.03;;;20.30;73.70;22.00;100593.00;;;;4989284;28;20245;-47
2022/06/06 00:56:01;;;;;;;21.37;19.17;;;20.00;74.80;21.90;100608.00;;;;4989072;28;20171;-47
2022/06/06 00:58:28;;;;;;;20.43;18.40;;;19.80;75.60;21.90;100608.00;;;;4973634;28;20171;-47
2022/06/06 01:00:53;;;;;;;22.10;19.90;;;19.80;75.60;21.90;100599.00;;;;4988990;28;20553;-47
2022/06/06 01:03:24;;;;;;;21.37;19.30;;;20.00;74.90;21.90;100574.00;;;;4976902;28;20172;-48
2022/06/06 01:05:50;;;;;;;20.63;18.63;;;19.90;74.50;21.80;100617.00;;;;4973093;28;20204;-47
2022/06/06 01:08:17;;;;;;;20.47;18.47;;;19.80;75.40;21.80;100555.00;;;;4988542;28;20162;-47
2022/06/06 01:10:43;;;;;;;21.93;19.57;;;20.00;74.70;21.80;100615.00;;;;4972584;28;20185;-47
2022/06/06 01:13:09;;;;;;;21.43;19.33;;;19.90;74.80;21.90;100612.00;;;;4989715;28;20210;-47
2022/06/06 01:16:05;;;;;;;20.00;17.90;;;20.20;74.00;21.90;100616.00;;;;4972551;28;20176;-47
2022/06/06 01:19:11;;;;;;;17.27;15.53;;;20.00;74.40;21.90;100602.00;;;;4975843;28;20178;-47
2022/06/06 01:22:15;;;;;;;21.10;18.90;;;20.40;73.10;21.90;100616.00;;;;4989573;28;20208;-47
2022/06/06 01:25:22;;;;;;;21.13;18.63;;;20.20;73.50;21.90;100605.00;;;;4984721;28;20214;-48
2022/06/06 01:28:03;;;;;;;18.33;16.53;;;19.70;75.70;21.80;100608.00;;;;4976449;28;20193;-46
2022/06/06 01:30:39;;;;;;;17.47;15.70;;;19.90;75.30;21.80;100610.00;;;;4973460;28;20152;-47
2022/06/06 01:33:08;;;;;;;17.27;15.47;;;20.10;74.60;21.90;100613.00;;;;4973273;28;20158;-46
2022/06/06 01:35:37;;;;;;;16.43;14.77;;;20.40;73.10;21.90;100611.00;;;;4972254;28;20870;-47
2022/06/06 01:38:03;;;;;;;18.83;16.93;;;20.40;73.30;22.00;100608.00;;;;4988654;28;20179;-47
2022/06/06 01:40:41;;;;;;;21.27;19.17;;;20.00;74.90;21.90;100598.00;;;;4998689;28;20187;-48
2022/06/06 01:43:18;;;;;;;19.80;17.73;;;20.00;74.90;21.90;100605.00;;;;4999897;28;20164;-47
2022/06/06 01:45:51;;;;;;;19.43;17.33;;;19.90;75.70;21.80;100595.00;;;;4977041;28;20195;-46
2022/06/06 01:48:23;;;;;;;17.70;15.90;;;19.60;76.60;21.70;100608.00;;;;4972131;28;20789;-46
2022/06/06 01:50:49;;;;;;;19.47;16.40;;;19.40;77.30;21.70;100605.00;;;;4972063;28;20170;-49
2022/06/06 01:53:21;;;;;;;19.47;17.40;;;19.50;76.90;21.60;100594.00;;;;4989093;28;20696;-47
2022/06/06 01:55:49;;;;;;;17.27;15.47;;;19.30;77.20;21.60;100593.00;;;;4989246;28;20658;-49
2022/06/06 01:58:25;;;;;;;18.30;16.33;;;19.40;77.20;21.40;100595.00;;;;4988709;28;20169;-47
2022/06/06 02:00:51;;;;;;;18.10;15.63;;;19.10;77.90;21.40;100598.00;;;;4971917;28;20649;-48
2022/06/06 02:03:17;;;;;;;18.27;15.03;;;19.30;77.10;21.30;100595.00;;;;4988837;28;20184;-47
2022/06/06 02:05:43;;;;;;;19.13;15.43;;;19.00;77.50;21.20;100604.00;;;;4988877;28;20779;-47
2022/06/06 02:08:09;;;;;;;16.60;14.90;;;18.90;77.80;21.20;100599.00;;;;4988465;28;20164;-47
2022/06/06 02:10:35;;;;;;;16.70;13.50;;;18.90;78.00;21.10;100588.00;;;;4989134;28;20635;-47
2022/06/06 02:13:01;;;;;;;14.33;12.70;;;19.10;77.50;21.10;100591.00;;;;4987235;28;20192;-48
2022/06/06 02:15:27;;;;;;;14.47;12.97;;;19.20;76.80;21.10;100589.00;;;;4988638;28;20259;-48
2022/06/06 02:17:54;;;;;;;15.37;13.30;;;19.20;76.10;21.10;100591.00;;;;4991907;28;20691;-49
2022/06/06 02:20:22;;;;;;;13.80;12.40;;;19.00;76.40;21.00;100597.00;;;;4992481;28;20187;-47
2022/06/06 02:22:48;;;;;;;14.87;12.27;;;18.90;76.60;21.00;100596.00;;;;4988317;28;20214;-47
2022/06/06 02:25:14;;;;;;;14.30;12.67;;;18.80;77.30;20.90;100591.00;;;;4988466;28;20193;-49
2022/06/06 02:27:40;;;;;;;11.33;10.13;;;18.80;77.30;20.90;100594.00;;;;4988440;28;20176;-48
2022/06/06 02:30:10;;;;;;;13.70;11.10;;;19.20;76.40;20.90;100593.00;;;;4988350;28;20183;-48
2022/06/06 02:32:35;;;;;;;11.87;10.67;;;19.20;76.00;21.00;100597.00;;;;4988524;28;20192;-45
2022/06/06 02:35:01;;;;;;;10.83;9.73;;;19.40;74.90;21.10;100593.00;;;;4988499;28;20175;-46
2022/06/06 02:37:27;;;;;;;11.50;9.80;;;19.50;75.60;21.10;100588.00;;;;4988209;28;20172;-47
2022/06/06 02:39:53;;;;;;;12.73;9.23;;;19.60;74.60;21.20;100613.00;;;;4988195;28;20415;-47
2022/06/06 02:42:18;;;;;;;13.00;11.03;;;19.90;73.90;21.20;100595.00;;;;4988075;28;20264;-48
2022/06/06 02:44:44;;;;;;;12.13;10.30;;;19.50;75.00;21.20;100597.00;;;;4988149;28;20225;-47
2022/06/06 02:47:10;;;;;;;12.53;10.10;;;19.50;75.00;21.30;100608.00;;;;4988089;28;20177;-47
2022/06/06 02:49:36;;;;;;;12.60;10.23;;;19.50;74.80;21.20;100604.00;;;;4987626;28;20179;-47
2022/06/06 02:52:03;;;;;;;12.00;10.47;;;19.20;75.10;21.20;100599.00;;;;4987380;28;20871;-47
2022/06/06 02:54:29;;;;;;;11.00;9.53;;;19.10;75.20;21.10;100599.00;;;;4988164;28;20256;-47
2022/06/06 02:56:56;;;;;;;10.67;9.57;;;18.90;75.80;21.00;100593.00;;;;4987585;28;20198;-47
2022/06/06 02:59:22;;;;;;;10.17;9.17;;;19.00;75.90;21.00;100595.00;;;;4987560;28;20176;-48
2022/06/06 03:01:48;;;;;;;9.37;8.47;;;19.00;75.80;20.70;100595.00;;;;4986497;28;20212;-48
2022/06/06 03:04:14;;;;;;;10.17;8.70;;;19.00;74.90;20.90;100596.00;;;;4987420;28;20230;-46
2022/06/06 03:07:34;;;;;;;9.00;8.10;;;18.90;75.00;20.90;100603.00;;;;4987629;28;20165;-49
2022/06/06 03:10:49;;;;;;;8.80;7.90;;;19.00;75.30;20.80;100602.00;;;;4982751;28;20219;-46
2022/06/06 03:13:49;;;;;;;8.87;7.90;;;18.70;75.60;20.80;100593.00;;;;4987577;28;20180;-46
2022/06/06 03:23:48;;;;;;;10.17;6.67;;;18.90;75.50;20.70;100600.00;;;;4986202;28;20250;-47
2022/06/06 03:26:41;;;;;;;11.50;7.03;;;19.00;75.10;20.70;100607.00;;;;4986281;28;20698;-47
2022/06/06 03:29:19;;;;;;;7.57;6.83;;;19.00;75.40;20.70;100614.00;;;;4986046;28;20830;-47
2022/06/06 03:32:06;;;;;;;8.93;8.10;;;19.10;75.70;20.70;100601.00;;;;4982942;28;20393;-46
2022/06/06 03:34:56;;;;;;;9.50;8.07;;;18.80;75.80;20.70;100602.00;;;;4981387;28;20263;-46
2022/06/06 03:37:27;;;;;;;7.63;6.83;;;18.60;76.70;20.60;100609.00;;;;4969918;28;20175;-48
2022/06/06 03:40:08;;;;;;;8.60;7.73;;;18.90;76.20;20.70;100610.00;;;;4985244;28;20169;-46
2022/06/06 03:42:59;;;;;;;7.77;7.00;;;18.90;75.80;20.70;100616.00;;;;4970445;28;20199;-47
2022/06/06 03:46:42;;;;;;;8.70;7.87;;;18.90;76.20;20.60;100598.00;;;;4977060;28;20345;-48
2022/06/06 03:49:45;;;;;;;10.30;6.73;;;18.70;76.20;20.70;100613.00;;;;4944773;29;20747;-47
2022/06/06 03:52:22;;;;;;;7.93;7.10;;;19.20;74.70;20.80;100602.00;;;;4930494;29;20823;-48
2022/06/06 03:55:36;;;;;;;6.00;5.40;;;19.40;73.50;20.90;100615.00;;;;4972929;28;20184;-48
2022/06/06 03:58:03;;;;;;;7.43;6.20;;;19.70;72.60;20.90;100611.00;;;;4984702;28;20267;-47
2022/06/06 04:00:29;;;;;;;8.77;7.13;;;19.70;72.20;21.00;100620.00;;;;4986833;28;20176;-46
2022/06/06 04:02:55;;;;;;;6.50;5.90;;;19.60;72.10;21.00;100620.00;;;;4968495;28;20184;-46
2022/06/06 04:05:22;;;;;;;6.87;6.27;;;19.80;72.00;21.10;100627.00;;;;4985226;28;20654;-46
2022/06/06 04:07:48;;;;;;;7.20;5.20;;;19.90;71.10;21.20;100640.00;;;;4986269;28;20154;-47
2022/06/06 04:10:15;;;;;;;10.47;6.53;;;19.90;71.30;21.20;100629.00;;;;4986567;28;20169;-46
2022/06/06 04:13:01;;;;;;;8.03;6.30;;;19.70;71.10;21.20;100630.00;;;;4986250;28;20219;-47
2022/06/06 04:15:53;;;;;;;8.90;6.90;;;19.30;72.50;21.00;100646.00;;;;4970805;28;20161;-47
2022/06/06 04:18:48;;;;;;;8.57;6.73;;;18.80;73.80;20.90;100636.00;;;;4984980;28;20188;-47
2022/06/06 04:21:45;;;;;;;7.80;7.00;;;18.60;74.90;20.70;100641.00;;;;4969503;28;20210;-46
2022/06/06 04:24:42;;;;;;;7.47;6.63;;;18.50;74.70;20.60;100643.00;;;;4985623;28;20216;-47
2022/06/06 04:27:14;;;;;;;7.10;6.50;;;18.30;75.30;20.50;100640.00;;;;4985092;28;20176;-47
2022/06/06 04:30:05;;;;;;;7.23;6.63;;;18.50;75.20;20.40;100643.00;;;;4986285;28;20234;-47
2022/06/06 04:33:04;;;;;;;8.00;7.30;;;18.30;75.50;20.30;100656.00;;;;4984909;28;20203;-46
2022/06/06 04:36:30;;;;;;;8.23;6.90;;;18.10;75.30;20.10;100654.00;;;;4972223;28;20165;-47
2022/06/06 04:39:06;;;;;;;7.87;7.07;;;17.90;75.60;20.00;100648.00;;;;4973336;28;20191;-47
2022/06/06 04:41:48;;;;;;;7.50;6.80;;;18.00;75.20;19.90;100646.00;;;;4984915;28;20202;-46
2022/06/06 04:44:41;;;;;;;7.83;7.03;;;17.90;75.00;19.80;100650.00;;;;4985043;28;20200;-46
2022/06/06 04:47:20;;;;;;;7.13;6.43;;;17.70;74.90;19.80;100646.00;;;;4986534;28;20167;-46
2022/06/06 04:49:46;;;;;;;7.43;6.73;;;17.70;75.20;19.70;100646.00;;;;4986451;28;20176;-48
2022/06/06 04:52:12;;;;;;;8.03;6.57;;;17.70;74.90;19.70;100644.00;;;;4984988;28;20203;-46
2022/06/06 04:54:40;;;;;;;7.00;6.40;;;17.70;75.30;19.70;100647.00;;;;4968960;28;20654;-46
2022/06/06 04:57:06;;;;;;;6.90;6.30;;;17.80;75.00;19.60;100627.00;;;;4984792;28;20183;-47
2022/06/06 04:59:32;;;;;;;7.53;6.83;;;17.80;76.00;19.70;100631.00;;;;4969588;28;20253;-46
2022/06/06 05:02:02;;;;;;;7.30;6.57;;;18.00;74.10;19.70;100637.00;;;;4969328;28;20247;-47
2022/06/06 05:04:29;;;;;;;7.43;6.73;;;17.90;74.20;19.70;100638.00;;;;4995305;28;20259;-47
2022/06/06 05:07:00;;;;;;;7.53;6.63;;;18.10;73.90;19.80;100647.00;;;;4998006;28;20169;-46
2022/06/06 05:10:04;;;;;;;8.67;6.50;;;18.20;73.50;19.80;100644.00;;;;4991923;28;20215;-46
2022/06/06 05:12:37;;;;;;;8.33;7.40;;;18.30;73.60;19.90;100662.00;;;;4984731;28;20273;-47
2022/06/06 05:15:34;;;;;;;8.03;7.23;;;18.20;73.20;19.90;100661.00;;;;4987962;28;20168;-46
2022/06/06 05:18:29;;;;;;;7.60;6.90;;;18.30;73.50;19.90;100661.00;;;;4992361;28;20187;-48
2022/06/06 05:21:13;;;;;;;8.60;7.33;;;18.20;73.40;19.80;100663.00;;;;4996771;28;20184;-46
2022/06/06 05:23:59;;;;;;;7.83;7.10;;;18.10;73.70;19.80;100663.00;;;;4990132;28;20171;-46
2022/06/06 05:26:49;;;;;;;8.10;7.30;;;17.90;74.10;19.70;100664.00;;;;4989831;28;20719;-47
2022/06/06 05:30:07;;;;;;;7.67;6.70;;;17.80;74.50;19.70;100671.00;;;;4989553;28;20632;-46
2022/06/06 05:32:52;;;;;;;11.20;7.20;;;18.00;74.50;19.70;100688.00;;;;4987544;28;20217;-46
2022/06/06 05:35:28;;;;;;;7.80;7.07;;;17.80;74.10;19.60;100689.00;;;;4989361;28;20235;-47
2022/06/06 05:38:07;;;;;;;7.63;6.90;;;17.70;74.90;19.50;100688.00;;;;4987681;28;20171;-47
2022/06/06 05:40:39;;;;;;;7.23;6.53;;;17.60;74.90;19.50;100694.00;;;;4987976;28;20183;-47
2022/06/06 05:43:50;;;;;;;7.10;6.40;;;17.60;74.80;19.40;100698.00;;;;4972017;28;20576;-48
2022/06/06 05:46:38;;;;;;;7.97;6.00;;;17.50;74.00;19.30;100696.00;;;;4975388;28;20218;-46
2022/06/06 05:49:35;;;;;;;6.13;5.53;;;17.50;74.50;19.30;100694.00;;;;4986723;28;20277;-47
2022/06/06 05:52:15;;;;;;;6.30;5.70;;;17.60;73.60;19.30;100679.00;;;;4988896;28;20199;-48
2022/06/06 05:55:13;;;;;;;6.43;5.47;;;17.60;73.30;19.20;100693.00;;;;4987517;28;20612;-47
2022/06/06 05:58:18;;;;;;;5.87;5.33;;;17.40;73.10;19.10;100697.00;;;;4987399;28;20250;-45
2022/06/06 06:01:11;;;;;;;6.10;5.40;;;17.40;73.50;19.10;100692.00;;;;4988677;28;20172;-46
2022/06/06 06:03:46;;;;;;;6.30;5.70;;;17.40;73.70;19.10;100703.00;;;;4973490;28;20281;-46
2022/06/06 06:06:21;;;;;;;5.87;5.27;;;17.60;73.40;19.10;100694.00;;;;4988441;28;20196;-46
2022/06/06 06:09:05;;;;;;;6.43;5.70;;;17.50;73.80;19.20;100699.00;;;;4986993;28;20182;-47
2022/06/06 06:11:55;;;;;;;5.77;5.27;;;17.70;73.20;19.20;100704.00;;;;4987392;28;20187;-47
2022/06/06 06:14:37;;;;;;;7.17;5.63;;;17.70;73.20;19.20;100697.00;;;;4971973;28;20203;-48
2022/06/06 06:17:03;;;;;;;5.70;5.20;;;17.60;73.20;19.20;100699.00;;;;4987149;28;20200;-46
2022/06/06 06:19:45;;;;;;;5.50;5.00;;;17.60;72.80;19.20;100706.00;;;;4987138;28;20205;-47
2022/06/06 06:22:11;;;;;;;5.73;5.13;;;17.40;73.10;19.10;100686.00;;;;4971392;28;20199;-46
2022/06/06 06:24:41;;;;;;;5.27;4.60;;;17.40;73.10;19.10;100693.00;;;;4987034;28;20205;-46
2022/06/06 06:27:07;;;;;;;5.93;4.40;;;17.60;73.20;19.20;100688.00;;;;4988588;28;20181;-46
2022/06/06 06:29:33;;;;;;;5.00;4.60;;;17.70;72.80;19.20;100698.00;;;;4987305;28;20161;-46
2022/06/06 06:32:43;;;;;;;5.07;4.43;;;17.70;72.10;19.30;100701.00;;;;4988179;28;20193;-47
2022/06/06 06:35:33;;;;;;;5.60;4.50;;;17.90;71.80;19.30;100703.00;;;;4987001;28;20163;-46
2022/06/06 06:38:13;;;;;;;5.00;4.30;;;18.10;71.50;19.40;100700.00;;;;4987911;28;20157;-47
2022/06/06 06:41:33;;;;;;;4.47;4.07;;;18.10;70.90;19.40;100723.00;;;;4986887;28;20159;-46
2022/06/06 06:44:11;;;;;;;5.03;3.83;;;17.90;70.70;19.40;100719.00;;;;4974562;28;20767;-46
2022/06/06 06:46:46;;;;;;;4.10;3.70;;;18.00;69.50;19.40;100715.00;;;;4987735;28;20818;-46
2022/06/06 06:49:35;;;;;;;4.67;3.70;;;18.00;69.50;19.40;100722.00;;;;4986566;28;20175;-46
2022/06/06 06:52:26;;;;;;;4.77;3.90;;;17.80;69.00;19.30;100721.00;;;;4986692;28;20286;-46
2022/06/06 06:55:13;;;;;;;3.90;3.60;;;17.80;69.50;19.30;100729.00;;;;4973859;28;20160;-46
2022/06/06 06:58:26;;;;;;;4.10;3.50;;;17.90;69.00;19.40;100715.00;;;;4986354;28;20194;-47
2022/06/06 07:01:03;;;;;;;4.20;3.60;;;17.90;68.70;19.30;100713.00;;;;4985793;28;20251;-47
2022/06/06 07:10:25;;;;;;;5.00;3.30;;;17.90;67.60;19.30;100722.00;;;;4989509;28;20293;-47
2022/06/06 07:13:38;;;;;;;4.40;3.47;;;17.90;68.00;19.40;100731.00;;;;4974418;28;20206;-47
2022/06/06 07:16:29;;;;;;;4.13;3.20;;;18.10;68.10;19.40;100721.00;;;;4988757;28;20202;-47
2022/06/06 07:19:03;;;;;;;5.10;3.33;;;18.10;67.60;19.50;100731.00;;;;4989925;28;20224;-47
2022/06/06 07:21:30;;;;;;;5.73;3.17;;;18.00;65.50;19.50;100727.00;;;;4990000;28;20306;-47
2022/06/06 07:23:57;;;;;;;3.53;2.93;;;18.00;66.20;19.40;100731.00;;;;4972856;28;20245;-47
2022/06/06 07:26:24;;;;;;;3.20;2.87;;;17.90;64.50;19.40;100723.00;;;;4972449;28;20248;-46
2022/06/06 07:28:50;;;;;;;4.73;3.17;;;17.90;63.40;19.40;100724.00;;;;4988447;28;20190;-47
2022/06/06 07:31:27;;;;;;;3.73;2.63;;;17.90;64.70;19.40;100720.00;;;;4989847;28;20195;-46
2022/06/06 07:34:22;;;;;;;3.50;2.60;;;18.00;64.60;19.50;100726.00;;;;4989102;28;20276;-48
2022/06/06 07:37:05;;;;;;;3.27;2.73;;;18.20;62.80;19.50;100712.00;;;;4989187;28;20176;-47
2022/06/06 07:40:14;;;;;;;3.60;2.60;;;18.30;63.20;19.50;100731.00;;;;4988689;28;20174;-49
2022/06/06 07:43:01;;;;;;;3.63;2.40;;;18.20;63.20;19.50;100716.00;;;;4988685;28;20556;-46
2022/06/06 07:45:45;;;;;;;2.50;2.30;;;18.10;61.20;19.50;100728.00;;;;4973469;28;20294;-47
2022/06/06 07:48:40;;;;;;;2.63;2.40;;;18.20;61.20;19.30;100717.00;;;;4989252;28;20314;-46
2022/06/06 07:51:27;;;;;;;2.70;2.40;;;18.20;60.70;19.60;100725.00;;;;4973086;28;20227;-47
2022/06/06 07:53:58;;;;;;;4.00;2.60;;;18.30;61.10;19.60;100725.00;;;;4986181;28;20189;-49
2022/06/06 07:56:57;;;;;;;3.83;2.37;;;18.50;61.30;19.70;100686.00;;;;4989399;28;20171;-48
2022/06/06 07:59:48;;;;;;;2.73;2.40;;;18.50;59.70;19.70;100725.00;;;;4988810;28;20203;-47
2022/06/06 08:02:41;;;;;;;3.37;2.30;;;18.50;60.20;19.70;100713.00;;;;4987933;28;20294;-46
2022/06/06 08:05:47;;;;;;;2.87;2.10;;;18.60;58.50;19.80;100705.00;;;;4987966;28;20192;-47
2022/06/06 08:08:31;;;;;;;2.50;2.17;;;18.40;58.40;19.80;100717.00;;;;4972916;28;20177;-46
2022/06/06 08:11:31;;;;;;;2.90;2.10;;;18.40;58.60;19.80;100722.00;;;;4988418;28;20637;-47
2022/06/06 08:14:23;;;;;;;2.53;2.13;;;18.40;58.80;19.80;100725.00;;;;4986783;28;20175;-46
2022/06/06 08:17:37;;;;;;;3.20;2.00;;;18.40;58.70;19.80;100716.00;;;;4973363;28;20260;-48
2022/06/06 08:20:15;;;;;;;2.83;1.90;;;18.50;58.40;19.80;100705.00;;;;4990330;28;20203;-46
2022/06/06 08:22:42;;;;;;;3.07;1.97;;;18.60;57.70;19.80;100737.00;;;;4987866;28;20206;-48
2022/06/06 08:25:11;;;;;;;2.37;2.00;;;18.60;57.40;19.80;100704.00;;;;4988705;28;20203;-47
2022/06/06 08:27:38;;;;;;;2.20;2.00;;;18.40;57.70;19.80;100713.00;;;;4987784;28;20180;-47
2022/06/06 08:30:04;;;;;;;3.53;2.00;;;18.50;58.00;19.80;100710.00;;;;4992343;28;20285;-48
2022/06/06 08:32:30;;;;;;;2.23;2.00;;;18.50;57.80;19.80;100705.00;;;;4997645;28;20200;-46
2022/06/06 08:34:56;;;;;;;2.10;1.90;;;18.60;58.10;19.90;100708.00;;;;4998274;28;20191;-46
2022/06/06 08:37:58;;;;;;;3.33;2.00;;;18.70;59.30;19.90;100706.00;;;;4989091;28;20190;-48
2022/06/06 08:40:56;;;;;;;2.30;1.80;;;18.80;57.50;19.90;100696.00;;;;4984985;28;20235;-47
2022/06/06 08:43:47;;;;;;;2.00;1.80;;;18.70;56.70;20.00;100703.00;;;;4979440;28;20175;-45
2022/06/06 08:46:31;;;;;;;3.27;1.80;;;18.80;56.70;20.00;100701.00;;;;4969337;28;20205;-47
2022/06/06 08:53:15;;;;;;;2.73;2.00;;;19.00;57.90;20.10;100712.00;;;;4990653;28;20204;-48
2022/06/06 08:56:28;;;;;;;3.60;2.20;;;19.10;58.00;20.20;100708.00;;;;4993231;28;20508;-46
2022/06/06 08:59:39;;;;;;;2.30;2.10;;;19.10;57.60;20.20;100710.00;;;;4993400;28;20184;-47
2022/06/06 09:02:36;;;;;;;2.90;2.00;;;19.30;57.70;20.20;100706.00;;;;4991644;28;20227;-47
2022/06/06 09:05:37;;;;;;;2.93;1.90;;;19.20;55.70;20.10;100700.00;;;;4991901;28;20573;-45
2022/06/06 09:08:17;;;;;;;2.43;1.80;;;18.90;55.10;20.10;100690.00;;;;4991291;28;20160;-47
2022/06/06 09:11:04;;;;;;;3.53;1.83;;;18.90;55.40;20.10;100693.00;;;;4992290;28;20499;-47
2022/06/06 09:13:45;;;;;;;2.17;1.90;;;19.10;55.80;20.20;100694.00;;;;4992549;28;20223;-47
2022/06/06 09:16:55;;;;;;;3.13;1.80;;;19.10;55.80;20.20;100694.00;;;;4991618;28;20157;-47
2022/06/06 09:19:58;;;;;;;1.80;1.70;;;19.00;55.90;20.20;100692.00;;;;4991290;28;20681;-46
2022/06/06 09:23:25;;;;;;;2.50;1.80;;;19.00;56.40;20.10;100691.00;;;;4977766;28;20211;-47
2022/06/06 09:26:00;;;;;;;1.90;1.80;;;18.90;56.70;20.10;100693.00;;;;4983548;28;20549;-46
2022/06/06 09:28:41;;;;;;;2.13;1.80;;;19.00;56.70;20.20;100691.00;;;;4975691;28;20222;-48
2022/06/06 09:31:16;;;;;;;2.40;1.90;;;19.20;56.80;20.20;100690.00;;;;4976749;28;20196;-47
2022/06/06 09:34:12;;;;;;;1.70;1.60;;;19.10;56.40;20.30;100687.00;;;;4992650;28;20246;-46
2022/06/06 09:37:00;;;;;;;2.17;1.80;;;19.10;55.50;20.30;100684.00;;;;4992630;28;20187;-47
2022/06/06 09:39:33;;;;;;;2.40;1.70;;;19.30;56.10;20.30;100693.00;;;;4992135;28;20183;-46
2022/06/06 09:42:17;;;;;;;1.83;1.73;;;19.20;55.80;20.30;100695.00;;;;4992494;28;20200;-48
2022/06/06 09:45:17;;;;;;;1.97;1.77;;;19.20;56.20;20.40;100701.00;;;;4976745;28;20291;-47
2022/06/06 09:48:15;;;;;;;2.80;1.70;;;19.20;56.50;20.40;100700.00;;;;4990742;28;20247;-48
2022/06/06 09:51:15;;;;;;;2.27;1.70;;;19.20;56.50;20.30;100703.00;;;;4991094;28;20175;-45
2022/06/06 10:01:08;;;;;;;4.13;1.80;;;18.90;57.60;20.20;100710.00;;;;4990575;28;20194;-46
2022/06/06 10:03:47;;;;;;;2.00;1.80;;;19.10;57.70;20.20;100701.00;;;;4992168;28;20203;-46
2022/06/06 10:07:05;;;;;;;2.03;1.83;;;19.00;58.00;20.20;100700.00;;;;4990499;28;20234;-47
2022/06/06 10:09:41;;;;;;;2.20;2.00;;;19.10;58.60;20.20;100692.00;;;;4991020;28;20196;-47
2022/06/06 10:13:00;;;;;;;2.13;1.90;;;19.20;59.00;20.30;100698.00;;;;4990210;28;20194;-46
2022/06/06 10:15:55;;;;;;;4.60;2.20;;;19.40;58.40;20.30;100693.00;;;;4991660;28;20183;-47
2022/06/06 10:18:33;;;;;;;2.23;2.00;;;19.30;58.30;20.40;100695.00;;;;4989962;28;20160;-47
2022/06/06 10:21:20;;;;;;;2.63;1.90;;;19.30;58.30;20.40;100687.00;;;;4991372;28;20188;-46
2022/06/06 10:24:21;;;;;;;2.43;1.70;;;19.20;57.20;20.40;100678.00;;;;4991277;28;20683;-47
2022/06/06 10:27:07;;;;;;;2.60;1.90;;;19.30;57.50;20.40;100681.00;;;;4976071;28;20665;-46
2022/06/06 10:30:44;;;;;;;2.33;1.70;;;19.50;56.70;20.50;100690.00;;;;4990290;28;20196;-48
2022/06/06 10:33:53;;;;;;;1.93;1.70;;;19.60;56.60;20.50;100697.00;;;;4985981;28;20251;-47
2022/06/06 10:36:50;;;;;;;2.00;1.80;;;19.40;56.40;20.40;100685.00;;;;4977056;28;20169;-47
2022/06/06 10:39:33;;;;;;;3.43;1.90;;;19.30;56.90;20.40;100693.00;;;;4990242;28;20175;-46
2022/06/06 10:42:53;;;;;;;1.90;1.70;;;19.30;58.10;20.40;100672.00;;;;4997997;28;20200;-47
2022/06/06 10:45:38;;;;;;;1.93;1.50;;;19.30;57.80;20.40;100675.00;;;;4989253;28;20230;-46
2022/06/06 10:49:00;;;;;;;2.17;1.50;;;19.20;57.30;20.50;100677.00;;;;4973287;28;20176;-46
2022/06/06 10:51:56;;;;;;;2.33;1.67;;;19.40;57.10;20.50;100685.00;;;;4983164;28;20207;-47
2022/06/06 10:55:15;;;;;;;2.77;1.80;;;19.50;56.70;20.60;100706.00;;;;4990196;28;20164;-47
2022/06/06 10:58:26;;;;;;;1.60;1.50;;;19.60;56.40;20.70;100690.00;;;;4989350;28;20300;-46
2022/06/06 11:01:34;;;;;;;3.83;1.60;;;19.60;56.60;20.70;100684.00;;;;4988801;28;20219;-47
2022/06/06 11:04:39;;;;;;;4.30;1.80;;;19.60;56.80;20.80;100690.00;;;;4989533;28;20152;-46
2022/06/06 11:07:13;;;;;;;3.47;1.63;;;19.70;56.50;20.80;100687.00;;;;4988685;28;20326;-46
2022/06/06 11:10:12;;;;;;;3.13;1.70;;;19.60;56.30;20.80;100681.00;;;;4989945;28;20263;-47
2022/06/06 11:13:32;;;;;;;1.73;1.63;;;19.70;57.30;20.90;100689.00;;;;4982599;28;20263;-47
2022/06/06 11:16:15;;;;;;;1.60;1.50;;;19.80;57.50;20.90;100685.00;;;;4932449;29;20682;-48
2022/06/06 11:19:11;;;;;;;2.67;1.80;;;19.70;56.50;20.90;100685.00;;;;4955402;28;20185;-49
2022/06/06 11:21:46;;;;;;;1.73;1.40;;;19.70;56.80;20.90;100679.00;;;;4984824;28;20234;-48
2022/06/06 11:24:22;;;;;;;2.50;1.70;;;19.70;57.20;21.00;100655.00;;;;4990301;28;20164;-48
2022/06/06 11:27:18;;;;;;;1.70;1.60;;;19.80;57.50;21.00;100687.00;;;;4958124;28;20653;-46
2022/06/06 11:30:09;;;;;;;1.87;1.40;;;19.80;56.80;21.00;100674.00;;;;4991371;28;20597;-46
2022/06/06 11:33:19;;;;;;;1.60;1.40;;;19.70;55.80;20.90;100664.00;;;;4975801;28;20397;-45
2022/06/06 11:36:25;;;;;;;1.50;1.40;;;19.60;55.50;20.90;100566.00;;;;4990698;28;20194;-46
2022/06/06 11:39:23;;;;;;;1.50;1.40;;;19.70;56.40;20.90;100661.00;;;;4990911;28;20176;-46
2022/06/06 11:42:23;;;;;;;1.50;1.40;;;19.90;55.60;21.00;100668.00;;;;4989070;28;20200;-47
2022/06/06 11:45:10;;;;;;;2.03;1.10;;;19.90;54.80;21.00;100659.00;;;;4988972;28;20196;-47
2022/06/06 11:48:01;;;;;;;2.20;1.50;;;20.00;55.20;21.00;100663.00;;;;4989369;28;20172;-47
2022/06/06 11:51:00;;;;;;;1.60;1.50;;;19.90;53.80;21.00;100655.00;;;;4812777;28;20175;-47
2022/06/06 11:54:26;;;;;;;2.00;1.50;;;20.00;53.90;21.10;100647.00;;;;4988530;28;20200;-48
2022/06/06 11:57:23;;;;;;;1.70;1.50;;;20.10;53.60;21.10;100645.00;;;;4988095;28;20173;-48
2022/06/06 12:00:28;;;;;;;1.80;1.70;;;20.20;53.90;21.20;100649.00;;;;4990689;28;20244;-47
2022/06/06 12:03:31;;;;;;;1.70;1.60;;;20.40;54.40;21.30;100649.00;;;;4998000;28;20204;-46
2022/06/06 12:06:32;;;;;;;1.77;1.67;;;20.50;54.50;21.30;100660.00;;;;4990655;28;20184;-46
2022/06/06 12:09:35;;;;;;;2.23;1.67;;;20.40;54.40;21.30;100637.00;;;;4988094;28;20157;-48
2022/06/06 12:12:41;;;;;;;2.03;1.70;;;20.40;54.00;21.40;100634.00;;;;4989304;28;20207;-47
2022/06/06 12:15:26;;;;;;;1.87;1.77;;;20.60;54.10;21.40;100617.00;;;;4989214;28;20506;-46
2022/06/06 12:18:28;;;;;;;1.80;1.60;;;20.50;54.50;21.50;100635.00;;;;4988938;28;20184;-47
2022/06/06 12:21:27;;;;;;;2.17;1.70;;;20.70;54.30;21.50;100617.00;;;;4987575;28;20654;-47
2022/06/06 12:24:01;;;;;;;2.43;1.80;;;20.70;54.90;21.60;100622.00;;;;4974203;28;20189;-46